Time;durP1;ratioP1;P1;durP2;ratioP2;P2;SDS_P1;SDS_P2;PMS_P1;PMS_P2;Temp;Humidity;BMP_temperature;BMP_pressure;BME280_temperature;BME280_humidity;BME280_pressure;Samples;Min_cycle;Max_cycle;Signal;HPM_P1;HPM_P2
2022/09/27 00:01:05;;;;;;;2.03;1.30;;;15.80;92.20;;;;;;4973772;28;20362;-67
2022/09/27 00:03:32;;;;;;;4.85;1.42;;;15.90;92.30;;;;;;4973469;28;20393;-80
2022/09/27 00:06:19;;;;;;;2.88;1.10;;;15.80;92.50;;;;;;4973579;28;20031;-79
2022/09/27 00:08:45;;;;;;;2.72;1.20;;;15.80;92.40;;;;;;4973574;28;20026;-67
2022/09/27 00:11:30;;;;;;;3.03;0.93;;;15.90;92.50;;;;;;4973877;28;20018;-77
2022/09/27 00:13:58;;;;;;;1.98;1.10;;;15.80;92.50;;;;;;4973806;28;20027;-82
2022/09/27 00:16:26;;;;;;;1.90;1.00;;;15.80;92.50;;;;;;4973551;28;20023;-80
2022/09/27 00:18:52;;;;;;;3.75;1.10;;;15.80;92.60;;;;;;4973653;28;20105;-80
2022/09/27 00:21:18;;;;;;;2.00;1.08;;;15.80;92.50;;;;;;4973370;28;20081;-72
2022/09/27 00:23:44;;;;;;;3.80;0.98;;;15.70;92.40;;;;;;4973580;28;20046;-68
2022/09/27 00:26:12;;;;;;;1.55;0.80;;;15.70;92.30;;;;;;4973615;28;20051;-74
2022/09/27 00:28:38;;;;;;;0.73;0.70;;;15.60;92.40;;;;;;4973752;28;20367;-75
2022/09/27 00:31:09;;;;;;;1.45;0.70;;;15.60;92.30;;;;;;4973648;28;20089;-76
2022/09/27 00:33:35;;;;;;;0.88;0.52;;;15.60;92.40;;;;;;4973622;28;20034;-77
2022/09/27 00:36:05;;;;;;;1.90;0.75;;;15.50;92.50;;;;;;4973537;28;20535;-76
2022/09/27 00:38:31;;;;;;;1.20;0.70;;;15.50;92.50;;;;;;4973536;28;20026;-68
2022/09/27 00:40:57;;;;;;;1.98;0.98;;;15.50;92.50;;;;;;4973635;28;20033;-76
2022/09/27 00:43:23;;;;;;;3.03;0.75;;;15.50;92.60;;;;;;4973405;28;20110;-78
2022/09/27 00:45:58;;;;;;;1.92;1.08;;;15.50;92.60;;;;;;4973630;28;20023;-77
2022/09/27 00:48:28;;;;;;;1.00;0.68;;;15.50;92.50;;;;;;4973369;28;20551;-77
2022/09/27 00:51:00;;;;;;;1.67;0.88;;;15.50;92.60;;;;;;4973625;28;20082;-78
2022/09/27 00:53:38;;;;;;;1.20;0.70;;;15.50;92.70;;;;;;4973364;28;20054;-76
2022/09/27 00:56:11;;;;;;;2.75;1.25;;;15.50;92.70;;;;;;4973387;28;20054;-73
2022/09/27 00:58:42;;;;;;;4.75;1.00;;;15.40;92.80;;;;;;4971301;28;20023;-76
2022/09/27 01:01:12;;;;;;;2.73;1.53;;;15.50;92.80;;;;;;4970499;28;20042;-77
2022/09/27 01:03:38;;;;;;;3.08;1.00;;;15.40;92.90;;;;;;4970446;28;20660;-79
2022/09/27 01:06:06;;;;;;;1.63;0.80;;;15.40;93.10;;;;;;4973070;28;20019;-78
2022/09/27 01:08:32;;;;;;;2.20;0.88;;;15.40;93.20;;;;;;4973080;28;20428;-78
2022/09/27 01:11:21;;;;;;;2.10;1.00;;;15.40;93.20;;;;;;4973078;28;20031;-68
2022/09/27 01:14:09;;;;;;;1.58;0.95;;;15.40;93.20;;;;;;4973350;28;20074;-66
2022/09/27 01:16:47;;;;;;;1.05;0.75;;;15.30;93.20;;;;;;4974619;28;20030;-78
2022/09/27 01:19:38;;;;;;;1.65;0.90;;;15.30;93.30;;;;;;4976439;28;20023;-76
2022/09/27 01:22:12;;;;;;;2.47;0.90;;;15.30;93.40;;;;;;4976886;28;20050;-66
2022/09/27 01:25:14;;;;;;;1.48;0.80;;;15.30;93.40;;;;;;4976655;28;20025;-70
2022/09/27 01:27:58;;;;;;;3.35;0.80;;;15.30;93.50;;;;;;4972389;28;20035;-75
2022/09/27 01:30:34;;;;;;;1.48;0.80;;;15.40;93.60;;;;;;4976688;28;20106;-77
2022/09/27 01:33:09;;;;;;;1.73;0.70;;;15.40;93.60;;;;;;4976371;28;20485;-75
2022/09/27 01:35:57;;;;;;;0.95;0.57;;;15.40;93.60;;;;;;4976355;28;20105;-76
2022/09/27 01:38:34;;;;;;;1.08;0.70;;;15.40;93.50;;;;;;4958822;28;20054;-78
2022/09/27 01:41:07;;;;;;;1.60;0.55;;;15.40;93.50;;;;;;4975921;28;20570;-76
2022/09/27 01:43:54;;;;;;;0.63;0.60;;;15.40;93.50;;;;;;4976271;28;20027;-77
2022/09/27 01:46:28;;;;;;;1.70;0.70;;;15.40;93.60;;;;;;4976105;28;20038;-77
2022/09/27 01:48:59;;;;;;;2.08;0.70;;;15.40;93.60;;;;;;4976351;28;20109;-76
2022/09/27 01:51:36;;;;;;;1.20;0.65;;;15.40;93.50;;;;;;4976109;28;20086;-74
2022/09/27 01:54:04;;;;;;;4.55;0.80;;;15.40;93.40;;;;;;4975998;28;20034;-77
2022/09/27 01:56:33;;;;;;;4.40;0.70;;;15.40;93.30;;;;;;4976013;28;20035;-76
2022/09/27 01:59:08;;;;;;;0.85;0.60;;;15.40;93.30;;;;;;4976024;28;20054;-76
2022/09/27 02:01:37;;;;;;;1.85;0.80;;;15.40;93.40;;;;;;4975774;28;20035;-76
2022/09/27 02:04:05;;;;;;;1.20;0.70;;;15.30;93.50;;;;;;4975914;28;20544;-77
2022/09/27 02:06:36;;;;;;;0.60;0.50;;;15.30;93.50;;;;;;4975597;28;20023;-77
2022/09/27 02:09:13;;;;;;;0.50;0.50;;;15.40;93.60;;;;;;4975824;28;20070;-78
2022/09/27 02:11:44;;;;;;;2.20;0.70;;;15.40;93.60;;;;;;4975709;28;20503;-75
2022/09/27 02:14:20;;;;;;;1.83;0.73;;;15.40;93.60;;;;;;4975462;28;20034;-79
2022/09/27 02:16:50;;;;;;;0.82;0.50;;;15.40;93.70;;;;;;4975679;28;20023;-79
2022/09/27 02:19:37;;;;;;;1.30;0.75;;;15.40;93.70;;;;;;4975772;28;20027;-79
2022/09/27 02:22:15;;;;;;;2.92;0.65;;;15.40;93.80;;;;;;4975231;28;20105;-79
2022/09/27 02:24:50;;;;;;;2.08;0.75;;;15.40;93.80;;;;;;4975323;28;20050;-79
2022/09/27 02:27:29;;;;;;;1.42;0.90;;;15.40;93.80;;;;;;4974823;28;20031;-79
2022/09/27 02:30:12;;;;;;;1.35;0.75;;;15.30;93.70;;;;;;4975639;28;20015;-77
2022/09/27 02:32:39;;;;;;;2.25;0.90;;;15.20;93.80;;;;;;4975499;28;20025;-78
2022/09/27 02:35:28;;;;;;;1.55;0.68;;;15.20;93.70;;;;;;4975320;28;20093;-76
2022/09/27 02:37:54;;;;;;;0.88;0.60;;;15.20;93.70;;;;;;4975279;28;20397;-77
2022/09/27 02:40:21;;;;;;;2.55;0.90;;;15.20;93.90;;;;;;4975145;28;20027;-78
2022/09/27 02:42:47;;;;;;;0.52;0.50;;;15.20;93.90;;;;;;4974891;28;20397;-77
2022/09/27 02:45:14;;;;;;;1.30;0.60;;;15.20;94.00;;;;;;4975105;28;20042;-71
2022/09/27 02:48:05;;;;;;;0.93;0.50;;;15.20;94.00;;;;;;4975355;28;20485;-77
2022/09/27 02:51:05;;;;;;;1.15;0.60;;;15.20;93.80;;;;;;4965082;28;20045;-67
2022/09/27 02:53:38;;;;;;;0.73;0.57;;;15.20;93.70;;;;;;4974899;28;20357;-66
2022/09/27 02:56:13;;;;;;;1.92;0.60;;;15.20;93.40;;;;;;4974835;28;20473;-68
2022/09/27 02:58:41;;;;;;;0.63;0.40;;;15.30;93.40;;;;;;4974693;28;20089;-77
2022/09/27 03:01:35;;;;;;;2.08;0.50;;;15.20;93.30;;;;;;4974251;28;20038;-77
2022/09/27 03:04:22;;;;;;;1.30;0.60;;;15.30;93.20;;;;;;4974389;28;20033;-78
2022/09/27 03:06:50;;;;;;;1.85;0.73;;;15.30;93.00;;;;;;4974852;28;20058;-77
2022/09/27 03:09:27;;;;;;;0.85;0.80;;;15.20;93.00;;;;;;4974693;28;20459;-77
2022/09/27 03:11:53;;;;;;;2.22;0.65;;;15.20;93.10;;;;;;4974401;28;20033;-78
2022/09/27 03:14:19;;;;;;;0.85;0.60;;;15.20;93.10;;;;;;4974382;28;20038;-78
2022/09/27 03:16:45;;;;;;;1.35;0.60;;;15.20;93.20;;;;;;4974584;28;20054;-78
2022/09/27 03:19:10;;;;;;;1.25;0.73;;;15.20;93.30;;;;;;4974502;28;20063;-77
2022/09/27 03:21:36;;;;;;;2.50;0.80;;;15.20;93.40;;;;;;4974309;28;20034;-76
2022/09/27 03:24:02;;;;;;;0.90;0.70;;;15.20;93.40;;;;;;4974455;28;20081;-77
2022/09/27 03:26:28;;;;;;;1.38;0.68;;;15.20;93.40;;;;;;4974346;28;20114;-76
2022/09/27 03:28:54;;;;;;;1.23;0.75;;;15.20;93.40;;;;;;4974395;28;20453;-79
2022/09/27 03:31:20;;;;;;;1.58;0.75;;;15.20;93.40;;;;;;4974399;28;20069;-77
2022/09/27 03:33:46;;;;;;;1.88;0.65;;;15.20;93.30;;;;;;4974324;28;20023;-77
2022/09/27 03:36:12;;;;;;;3.00;0.73;;;15.20;93.30;;;;;;4974177;28;20047;-77
2022/09/27 03:38:38;;;;;;;1.70;0.90;;;15.20;93.30;;;;;;4973398;28;20151;-75
2022/09/27 03:41:04;;;;;;;0.63;0.60;;;15.20;93.30;;;;;;4973724;28;20023;-78
2022/09/27 03:43:29;;;;;;;4.70;0.85;;;15.20;93.40;;;;;;4974126;28;20062;-76
2022/09/27 03:45:55;;;;;;;1.58;0.73;;;15.20;93.50;;;;;;4974181;28;20050;-76
2022/09/27 03:48:21;;;;;;;1.65;0.82;;;15.20;93.50;;;;;;4974196;28;20429;-76
2022/09/27 03:50:46;;;;;;;1.40;0.80;;;15.20;93.50;;;;;;4973938;28;20061;-75
2022/09/27 03:53:12;;;;;;;2.42;0.95;;;15.10;93.60;;;;;;4973956;28;20034;-75
2022/09/27 03:55:38;;;;;;;3.50;0.80;;;15.10;93.60;;;;;;4973986;28;20027;-76
2022/09/27 03:58:04;;;;;;;1.80;0.55;;;15.10;93.70;;;;;;4973741;28;20034;-75
2022/09/27 04:00:31;;;;;;;0.82;0.60;;;15.10;93.70;;;;;;4973915;28;20031;-77
2022/09/27 04:02:58;;;;;;;1.77;0.77;;;15.10;93.80;;;;;;4973870;28;20409;-77
2022/09/27 04:05:25;;;;;;;1.55;0.77;;;15.10;93.90;;;;;;4973807;28;20065;-77
2022/09/27 04:07:51;;;;;;;1.40;0.68;;;15.10;94.00;;;;;;4973638;28;20080;-75
2022/09/27 04:10:17;;;;;;;1.27;0.70;;;15.10;93.90;;;;;;4973622;28;20026;-76
2022/09/27 04:12:43;;;;;;;1.10;0.68;;;15.10;93.90;;;;;;4974025;28;20035;-70
2022/09/27 04:15:09;;;;;;;2.38;0.93;;;15.10;93.90;;;;;;4973761;28;20023;-73
2022/09/27 04:17:35;;;;;;;1.27;0.90;;;15.10;94.00;;;;;;4973760;28;20062;-76
2022/09/27 04:20:02;;;;;;;3.35;1.13;;;15.10;94.10;;;;;;4973854;28;20488;-77
2022/09/27 04:22:28;;;;;;;2.45;0.98;;;15.10;94.20;;;;;;4973717;28;20039;-74
2022/09/27 04:24:54;;;;;;;2.42;0.90;;;15.20;94.20;;;;;;4973910;28;20481;-78
2022/09/27 04:27:21;;;;;;;2.05;1.23;;;15.10;94.30;;;;;;4973624;28;20026;-74
2022/09/27 04:29:47;;;;;;;1.90;0.80;;;15.20;94.20;;;;;;4973730;28;20145;-76
2022/09/27 04:32:13;;;;;;;6.22;0.93;;;15.20;94.20;;;;;;4973623;28;20109;-77
2022/09/27 04:37:24;;;;;;;1.55;0.70;;;15.20;94.20;;;;;;4973295;28;20131;-78
2022/09/27 04:39:50;;;;;;;2.03;0.70;;;15.20;94.10;;;;;;4973569;28;20030;-78
2022/09/27 04:42:17;;;;;;;1.88;0.63;;;15.20;94.00;;;;;;4973633;28;20447;-79
2022/09/27 04:44:43;;;;;;;3.70;0.90;;;15.20;94.10;;;;;;4973657;28;20031;-78
2022/09/27 04:47:09;;;;;;;2.75;0.90;;;15.20;94.00;;;;;;4973253;28;20026;-76
2022/09/27 04:49:35;;;;;;;1.85;0.88;;;15.20;94.00;;;;;;4973447;28;20090;-74
2022/09/27 04:52:01;;;;;;;2.15;0.82;;;15.20;94.00;;;;;;4976918;28;20481;-77
2022/09/27 04:54:28;;;;;;;2.63;0.90;;;15.20;94.00;;;;;;4976960;28;20023;-77
2022/09/27 04:56:53;;;;;;;1.00;0.77;;;15.20;94.00;;;;;;4977232;28;20045;-77
2022/09/27 04:59:19;;;;;;;1.35;0.73;;;15.20;93.90;;;;;;4977069;28;20027;-78
2022/09/27 05:01:45;;;;;;;4.82;0.98;;;15.20;93.90;;;;;;4977000;28;20150;-75
2022/09/27 05:04:11;;;;;;;1.27;0.80;;;15.20;93.90;;;;;;4976882;28;20023;-77
2022/09/27 05:06:37;;;;;;;1.77;0.90;;;15.20;93.90;;;;;;4976939;28;20040;-76
2022/09/27 05:09:03;;;;;;;1.50;0.80;;;15.20;93.90;;;;;;4976746;28;20054;-77
2022/09/27 05:11:28;;;;;;;3.45;0.77;;;15.20;93.90;;;;;;4977106;28;20023;-76
2022/09/27 05:13:54;;;;;;;1.90;0.70;;;15.20;93.90;;;;;;4976853;28;20077;-76
2022/09/27 05:16:20;;;;;;;6.22;0.90;;;15.20;93.90;;;;;;4976754;28;20473;-76
2022/09/27 05:18:45;;;;;;;2.97;0.90;;;15.20;94.00;;;;;;4976810;28;20568;-76
2022/09/27 05:21:12;;;;;;;4.47;1.10;;;15.20;94.10;;;;;;4976993;28;20046;-74
2022/09/27 05:23:37;;;;;;;2.28;1.10;;;15.20;94.10;;;;;;4976667;28;20038;-75
2022/09/27 05:26:05;;;;;;;4.32;0.95;;;15.20;94.10;;;;;;4976651;28;20027;-75
2022/09/27 05:28:31;;;;;;;3.30;1.35;;;15.20;94.10;;;;;;4976625;28;20430;-77
2022/09/27 05:30:57;;;;;;;6.07;1.13;;;15.20;94.20;;;;;;4976392;28;20035;-77
2022/09/27 05:33:23;;;;;;;4.38;1.02;;;15.20;94.20;;;;;;4978138;28;20473;-75
2022/09/27 05:35:56;;;;;;;2.17;1.10;;;15.20;94.20;;;;;;4975920;28;20105;-76
2022/09/27 05:38:22;;;;;;;2.33;1.00;;;15.20;94.20;;;;;;4976109;28;20031;-78
2022/09/27 05:40:50;;;;;;;3.50;0.90;;;15.20;94.20;;;;;;4976237;28;20037;-78
2022/09/27 05:43:16;;;;;;;4.88;1.10;;;15.20;94.30;;;;;;4976112;28;20027;-78
2022/09/27 05:45:43;;;;;;;2.40;0.90;;;15.20;94.40;;;;;;4976170;28;20030;-74
2022/09/27 05:48:09;;;;;;;1.98;1.40;;;15.20;94.50;;;;;;4976157;28;20031;-76
2022/09/27 05:50:35;;;;;;;6.57;1.48;;;15.30;94.50;;;;;;4976057;28;20031;-76
2022/09/27 05:53:01;;;;;;;2.35;1.17;;;15.20;94.50;;;;;;4976229;28;20027;-77
2022/09/27 05:55:28;;;;;;;1.65;1.10;;;15.20;94.60;;;;;;4976205;28;20035;-77
2022/09/27 05:57:59;;;;;;;5.82;1.40;;;15.20;94.60;;;;;;4976143;28;20037;-77
2022/09/27 06:00:26;;;;;;;2.25;1.05;;;15.20;94.50;;;;;;4975807;28;20030;-73
2022/09/27 06:02:56;;;;;;;1.98;0.95;;;15.20;94.50;;;;;;4975073;28;20074;-76
2022/09/27 06:05:23;;;;;;;2.35;1.13;;;15.30;94.40;;;;;;4976168;28;20031;-76
2022/09/27 06:07:49;;;;;;;4.40;0.90;;;15.20;94.30;;;;;;4975974;28;20038;-78
2022/09/27 06:10:17;;;;;;;4.95;1.00;;;15.20;94.20;;;;;;4975635;28;20026;-78
2022/09/27 06:12:43;;;;;;;1.83;0.95;;;15.30;94.20;;;;;;4975378;28;20034;-77
2022/09/27 06:15:09;;;;;;;5.20;1.10;;;15.30;94.20;;;;;;4975510;28;20392;-77
2022/09/27 06:17:34;;;;;;;5.63;1.15;;;15.30;94.20;;;;;;4975691;28;20105;-76
2022/09/27 06:20:00;;;;;;;5.63;1.70;;;15.20;94.20;;;;;;4973731;28;20058;-77
2022/09/27 06:22:26;;;;;;;7.95;1.10;;;15.30;94.10;;;;;;4974897;28;20370;-76
2022/09/27 06:24:52;;;;;;;2.05;1.05;;;15.30;94.20;;;;;;4974992;28;20050;-77
2022/09/27 06:27:17;;;;;;;4.95;1.35;;;15.30;94.30;;;;;;4975446;28;20034;-76
2022/09/27 06:29:43;;;;;;;7.03;1.20;;;15.30;94.30;;;;;;4975127;28;20167;-77
2022/09/27 06:32:09;;;;;;;8.77;1.85;;;15.30;94.40;;;;;;4974930;28;20512;-76
2022/09/27 06:34:35;;;;;;;10.85;2.50;;;15.30;94.50;;;;;;4982740;28;20498;-76
2022/09/27 06:37:01;;;;;;;6.97;1.67;;;15.30;94.50;;;;;;4993132;28;20090;-77
2022/09/27 06:39:27;;;;;;;4.50;1.50;;;15.40;94.50;;;;;;4992956;28;20385;-77
2022/09/27 06:41:56;;;;;;;5.72;1.35;;;15.40;94.60;;;;;;4987979;28;20117;-77
2022/09/27 06:44:23;;;;;;;3.83;1.33;;;15.40;94.60;;;;;;4973633;28;20041;-77
2022/09/27 06:46:54;;;;;;;5.10;1.58;;;15.40;94.70;;;;;;5008582;28;20428;-77
2022/09/27 06:49:21;;;;;;;2.72;1.50;;;15.40;94.60;;;;;;4993998;28;20038;-77
2022/09/27 06:51:47;;;;;;;3.70;1.40;;;15.40;94.50;;;;;;4994188;28;20026;-77
2022/09/27 06:54:13;;;;;;;6.45;1.60;;;15.40;94.50;;;;;;4993857;28;20102;-75
2022/09/27 06:56:39;;;;;;;3.60;1.63;;;15.40;94.60;;;;;;4994031;28;20065;-78
2022/09/27 07:01:51;;;;;;;11.98;2.05;;;15.40;94.60;;;;;;4994037;28;20053;-78
2022/09/27 07:04:17;;;;;;;16.67;2.25;;;15.40;94.80;;;;;;4993870;28;20030;-78
2022/09/27 07:06:44;;;;;;;7.13;2.03;;;15.40;94.80;;;;;;4993876;28;20102;-78
2022/09/27 07:09:09;;;;;;;8.18;2.38;;;15.40;94.90;;;;;;4994317;28;20027;-78
2022/09/27 07:11:36;;;;;;;7.28;1.45;;;15.50;94.90;;;;;;4993917;28;20077;-78
2022/09/27 07:14:03;;;;;;;4.95;1.60;;;15.50;95.00;;;;;;4994130;28;20022;-78
2022/09/27 07:16:33;;;;;;;6.55;1.75;;;15.40;94.90;;;;;;4994343;28;20391;-77
2022/09/27 07:18:59;;;;;;;6.53;1.70;;;15.40;95.00;;;;;;4994547;28;20027;-66
2022/09/27 07:21:25;;;;;;;5.40;1.75;;;15.40;95.00;;;;;;4993946;28;20030;-77
2022/09/27 07:23:52;;;;;;;2.70;1.50;;;15.40;95.10;;;;;;4994042;28;20073;-73
2022/09/27 07:26:18;;;;;;;6.47;1.48;;;15.50;95.20;;;;;;4994058;28;20034;-76
2022/09/27 07:28:44;;;;;;;5.45;1.67;;;15.50;95.20;;;;;;4994255;28;20018;-76
2022/09/27 07:31:11;;;;;;;8.70;1.88;;;15.50;95.40;;;;;;4993551;28;20018;-78
2022/09/27 07:33:38;;;;;;;6.38;1.75;;;15.50;95.40;;;;;;4993968;28;20022;-78
2022/09/27 07:36:09;;;;;;;9.88;2.38;;;15.50;95.40;;;;;;4994011;28;20537;-77
2022/09/27 07:38:35;;;;;;;10.88;1.98;;;15.50;95.50;;;;;;4993278;28;20027;-76
2022/09/27 07:41:12;;;;;;;6.22;1.65;;;15.50;95.50;;;;;;4993323;28;20030;-76
2022/09/27 07:43:39;;;;;;;7.07;1.83;;;15.60;95.50;;;;;;4993448;28;20030;-78
2022/09/27 07:46:06;;;;;;;7.47;2.30;;;15.60;95.40;;;;;;4992698;28;20486;-78
2022/09/27 07:48:32;;;;;;;9.43;2.60;;;15.60;95.40;;;;;;4992565;28;20030;-78
2022/09/27 07:50:58;;;;;;;9.52;2.90;;;15.60;95.50;;;;;;4993699;28;20042;-77
2022/09/27 07:53:24;;;;;;;8.40;3.22;;;15.60;95.50;;;;;;4993319;28;20511;-77
2022/09/27 07:55:52;;;;;;;9.30;2.92;;;15.60;95.60;;;;;;4992473;28;20069;-78
2022/09/27 07:58:19;;;;;;;8.48;2.47;;;15.60;95.60;;;;;;4993528;28;20026;-77
2022/09/27 08:00:44;;;;;;;5.15;2.20;;;15.60;95.70;;;;;;4993279;28;20149;-77
2022/09/27 08:03:15;;;;;;;5.88;1.98;;;15.60;95.90;;;;;;4993133;28;20113;-78
2022/09/27 08:05:46;;;;;;;5.82;2.40;;;15.70;96.00;;;;;;4993007;28;20073;-78
2022/09/27 08:08:12;;;;;;;5.65;1.77;;;15.80;96.30;;;;;;4992970;28;20109;-78
2022/09/27 08:10:42;;;;;;;4.57;1.80;;;15.90;96.40;;;;;;4993199;28;20054;-77
2022/09/27 08:13:09;;;;;;;5.95;1.83;;;16.00;96.00;;;;;;4992788;28;20042;-77
2022/09/27 08:15:37;;;;;;;6.03;1.40;;;16.10;96.00;;;;;;4993022;28;20038;-77
2022/09/27 08:18:03;;;;;;;6.30;1.73;;;16.10;95.70;;;;;;4993058;28;20030;-78
2022/09/27 08:20:29;;;;;;;4.13;1.48;;;16.20;95.60;;;;;;4993517;28;20080;-77
2022/09/27 08:22:55;;;;;;;5.53;1.52;;;16.20;95.70;;;;;;4993413;28;20042;-76
2022/09/27 08:25:23;;;;;;;4.97;1.83;;;16.20;95.60;;;;;;4994748;28;20389;-78
2022/09/27 08:28:00;;;;;;;7.43;1.83;;;16.20;95.60;;;;;;4997464;28;20022;-78
2022/09/27 08:30:26;;;;;;;8.05;2.33;;;16.20;95.60;;;;;;4997610;28;20050;-78
2022/09/27 08:32:57;;;;;;;4.95;1.50;;;16.20;95.50;;;;;;4997246;28;20504;-78
2022/09/27 08:35:23;;;;;;;4.85;1.60;;;16.10;95.30;;;;;;4997179;28;20365;-76
2022/09/27 08:37:57;;;;;;;4.70;1.50;;;16.10;95.20;;;;;;4996988;28;20109;-77
2022/09/27 08:40:43;;;;;;;5.68;1.40;;;16.00;95.00;;;;;;4997302;28;20026;-75
2022/09/27 08:43:27;;;;;;;7.63;2.20;;;15.90;94.60;;;;;;4997042;28;20117;-78
2022/09/27 08:46:03;;;;;;;6.10;1.65;;;15.80;94.30;;;;;;4997212;28;20105;-79
2022/09/27 08:48:30;;;;;;;5.97;1.30;;;15.70;94.40;;;;;;4997100;28;20030;-77
2022/09/27 08:50:57;;;;;;;3.20;1.55;;;15.70;94.50;;;;;;4996873;28;20031;-77
2022/09/27 08:53:27;;;;;;;3.50;1.50;;;15.60;94.20;;;;;;4997083;28;20054;-66
2022/09/27 08:56:02;;;;;;;4.03;1.40;;;15.60;94.20;;;;;;4996094;28;20113;-74
2022/09/27 08:58:35;;;;;;;4.63;1.40;;;15.60;94.00;;;;;;4996237;28;20540;-73
2022/09/27 09:01:03;;;;;;;4.53;1.65;;;15.60;94.10;;;;;;4996112;28;22749;-77
2022/09/27 09:03:32;;;;;;;3.85;1.55;;;15.50;94.30;;;;;;4995363;28;20114;-73
2022/09/27 09:06:10;;;;;;;4.10;1.50;;;15.50;94.70;;;;;;4995748;28;20412;-70
2022/09/27 09:09:00;;;;;;;2.90;1.50;;;15.60;94.90;;;;;;4995257;28;20109;-72
2022/09/27 09:15:04;;;;;;;5.15;1.42;;;15.60;94.90;;;;;;4995135;28;20134;-78
2022/09/27 09:18:08;;;;;;;4.85;1.80;;;15.60;94.80;;;;;;4994838;28;20030;-78
2022/09/27 09:20:45;;;;;;;;;;;15.70;94.70;;;;;;4995421;28;20092;-78
2022/09/27 09:23:29;;;;;;;4.90;1.63;;;15.70;94.70;;;;;;4994663;28;20632;-77
2022/09/27 09:26:27;;;;;;;4.00;1.70;;;15.70;94.70;;;;;;4994177;28;20069;-77
2022/09/27 09:29:33;;;;;;;4.25;1.73;;;15.80;94.90;;;;;;4994114;28;20366;-77
2022/09/27 09:32:06;;;;;;;6.43;1.75;;;15.80;94.90;;;;;;4983116;28;20104;-78
2022/09/27 09:34:38;;;;;;;3.70;1.95;;;15.80;94.90;;;;;;4994681;28;20110;-78
2022/09/27 09:37:18;;;;;;;2.60;1.83;;;15.80;95.00;;;;;;4994646;28;20042;-78
2022/09/27 09:39:53;;;;;;;4.15;2.20;;;15.80;95.00;;;;;;4995622;28;20041;-79
2022/09/27 09:42:39;;;;;;;4.18;1.80;;;15.90;95.20;;;;;;4995274;28;20126;-77
2022/09/27 09:45:06;;;;;;;3.40;2.00;;;15.90;95.20;;;;;;4995652;28;20034;-79
2022/09/27 09:47:43;;;;;;;3.97;1.92;;;15.90;95.10;;;;;;4995643;28;20034;-78
2022/09/27 09:50:25;;;;;;;3.83;2.20;;;15.90;95.20;;;;;;4995356;28;20030;-78
2022/09/27 09:53:18;;;;;;;3.92;2.00;;;16.00;95.30;;;;;;4995786;28;20053;-78
2022/09/27 09:55:59;;;;;;;5.35;2.40;;;16.00;95.40;;;;;;4990440;28;20476;-85
2022/09/27 09:58:42;;;;;;;5.77;2.10;;;16.10;95.40;;;;;;4995556;28;20038;-85
2022/09/27 10:01:23;;;;;;;2.22;1.45;;;16.30;95.30;;;;;;4995571;28;20376;-77
2022/09/27 10:03:49;;;;;;;3.47;1.58;;;16.50;95.30;;;;;;4995845;28;20099;-89
2022/09/27 10:06:16;;;;;;;4.15;1.70;;;16.70;95.20;;;;;;4995887;28;20551;-79
2022/09/27 10:08:42;;;;;;;6.80;1.58;;;16.90;94.90;;;;;;4995291;28;20112;-79
2022/09/27 10:11:35;;;;;;;3.08;1.40;;;17.10;95.10;;;;;;4995471;28;20038;-78
2022/09/27 10:14:01;;;;;;;2.00;1.40;;;17.20;94.90;;;;;;4995366;28;20101;-66
2022/09/27 10:16:28;;;;;;;4.68;1.40;;;17.40;94.60;;;;;;4995281;28;20153;-78
2022/09/27 10:18:59;;;;;;;4.30;1.40;;;17.40;94.10;;;;;;4995053;28;20045;-78
2022/09/27 10:21:28;;;;;;;3.05;1.30;;;17.50;93.70;;;;;;4995233;28;20039;-78
2022/09/27 10:24:13;;;;;;;1.60;0.90;;;17.60;93.60;;;;;;4995167;28;20488;-76
2022/09/27 10:26:43;;;;;;;3.33;0.98;;;17.60;93.60;;;;;;4994970;28;20046;-77
2022/09/27 10:29:16;;;;;;;3.47;1.02;;;17.70;93.20;;;;;;4995119;28;20022;-79
2022/09/27 10:31:46;;;;;;;4.68;1.00;;;17.70;93.00;;;;;;4994877;28;20492;-78
2022/09/27 10:34:20;;;;;;;1.45;1.00;;;17.70;92.90;;;;;;4994548;28;20477;-78
2022/09/27 10:37:16;;;;;;;3.55;1.20;;;17.80;92.90;;;;;;4994682;28;20049;-74
2022/09/27 10:39:46;;;;;;;2.33;1.05;;;17.80;93.00;;;;;;4994459;28;20354;-77
2022/09/27 10:42:31;;;;;;;8.35;1.58;;;17.80;93.00;;;;;;4994389;28;20038;-77
2022/09/27 10:44:56;;;;;;;6.85;1.60;;;17.80;92.70;;;;;;4994053;28;20030;-73
2022/09/27 10:47:25;;;;;;;1.83;1.35;;;17.80;92.70;;;;;;4994760;28;20608;-78
2022/09/27 10:50:00;;;;;;;2.63;1.40;;;17.70;92.60;;;;;;4994163;28;20033;-78
2022/09/27 10:52:26;;;;;;;4.93;1.40;;;17.70;92.60;;;;;;4994249;28;20034;-78
2022/09/27 10:55:06;;;;;;;2.97;1.30;;;17.70;92.60;;;;;;4994146;28;20381;-77
2022/09/27 10:57:32;;;;;;;6.07;1.40;;;17.60;92.60;;;;;;4993343;28;20031;-79
2022/09/27 11:00:21;;;;;;;3.45;1.40;;;17.60;92.60;;;;;;4994312;28;20029;-78
2022/09/27 11:02:52;;;;;;;2.47;1.48;;;17.50;92.60;;;;;;4994356;28;20034;-80
2022/09/27 11:05:28;;;;;;;3.97;1.73;;;17.40;92.60;;;;;;4994167;28;20018;-79
2022/09/27 11:07:58;;;;;;;2.67;1.35;;;17.40;92.70;;;;;;4993961;28;20089;-77
2022/09/27 11:10:27;;;;;;;2.20;1.42;;;17.40;92.90;;;;;;4993481;28;20516;-79
2022/09/27 11:13:13;;;;;;;3.33;1.80;;;17.30;93.10;;;;;;4993292;28;20022;-67
2022/09/27 11:16:07;;;;;;;4.00;1.63;;;17.30;93.20;;;;;;4993279;28;20041;-85
2022/09/27 11:18:52;;;;;;;3.15;1.70;;;17.30;93.20;;;;;;4994105;28;20026;-78
2022/09/27 11:21:24;;;;;;;4.03;1.40;;;17.30;93.10;;;;;;4993870;28;20041;-74
2022/09/27 11:24:06;;;;;;;2.42;1.50;;;17.30;93.00;;;;;;4994015;28;20034;-77
2022/09/27 11:26:43;;;;;;;4.32;1.63;;;17.30;93.10;;;;;;4993932;28;20018;-78
2022/09/27 11:29:49;;;;;;;4.63;1.45;;;17.30;93.10;;;;;;4999361;28;20099;-80
2022/09/27 11:33:02;;;;;;;7.82;1.70;;;17.20;93.10;;;;;;4966688;28;20038;-66
2022/09/27 11:35:33;;;;;;;5.32;1.90;;;17.20;93.20;;;;;;5004155;28;20125;-78
2022/09/27 11:38:37;;;;;;;4.18;1.65;;;17.30;93.30;;;;;;5013266;28;20056;-69
2022/09/27 11:41:21;;;;;;;4.47;1.83;;;17.40;93.20;;;;;;5004781;28;20041;-66
2022/09/27 11:56:18;;;;;;;7.05;1.77;;;17.60;92.90;;;;;;5110718;27;20449;-67
2022/09/27 11:58:59;;;;;;;3.30;1.52;;;18.20;93.40;;;;;;5110517;28;20495;-68
2022/09/27 12:01:31;;;;;;;3.55;1.40;;;18.20;92.70;;;;;;5110080;28;20423;-68
2022/09/27 12:04:32;;;;;;;6.65;2.20;;;18.20;92.60;;;;;;5108573;28;20481;-69
2022/09/27 12:07:15;;;;;;;1.92;1.23;;;18.20;92.40;;;;;;5098667;28;20039;-69
2022/09/27 12:09:49;;;;;;;4.43;1.30;;;18.10;92.10;;;;;;5110342;28;20389;-68
2022/09/27 12:12:25;;;;;;;2.80;1.35;;;18.20;91.90;;;;;;5110193;28;20031;-69
2022/09/27 12:15:03;;;;;;;2.67;1.10;;;18.10;92.00;;;;;;5110352;28;20031;-67
2022/09/27 12:17:43;;;;;;;4.45;0.90;;;18.10;91.90;;;;;;5110334;28;20412;-67
2022/09/27 12:20:39;;;;;;;1.85;1.00;;;18.10;91.80;;;;;;5110289;28;20397;-67
2022/09/27 12:23:14;;;;;;;2.97;0.70;;;18.10;91.70;;;;;;5097360;28;20075;-67
2022/09/27 12:25:41;;;;;;;1.35;0.60;;;18.20;91.60;;;;;;5110013;28;20031;-68
2022/09/27 12:28:33;;;;;;;2.63;0.82;;;18.20;91.20;;;;;;5110155;28;20070;-68
2022/09/27 12:31:25;;;;;;;2.33;0.90;;;18.20;91.00;;;;;;5082498;28;20053;-67
2022/09/27 12:34:04;;;;;;;1.53;0.90;;;18.20;90.90;;;;;;5101431;28;20266;-67
2022/09/27 12:36:36;;;;;;;0.88;0.70;;;18.20;90.90;;;;;;5110328;28;20356;-67
2022/09/27 12:39:10;;;;;;;3.30;0.95;;;18.20;90.80;;;;;;5109983;28;20020;-67
2022/09/27 12:41:40;;;;;;;1.50;0.70;;;18.20;90.80;;;;;;5109886;28;20111;-67
2022/09/27 12:44:10;;;;;;;1.15;0.70;;;18.20;90.80;;;;;;5109566;28;20074;-68
2022/09/27 12:47:03;;;;;;;1.75;0.80;;;18.20;90.80;;;;;;5109539;28;20476;-72
2022/09/27 12:49:41;;;;;;;1.77;0.70;;;18.20;90.60;;;;;;5109624;28;20090;-73
2022/09/27 12:52:21;;;;;;;2.33;1.00;;;18.10;90.50;;;;;;5109732;28;20072;-73
2022/09/27 12:54:46;;;;;;;1.13;0.70;;;18.10;90.60;;;;;;5109402;28;20036;-75
2022/09/27 12:57:36;;;;;;;1.30;0.80;;;18.10;90.90;;;;;;5096040;28;20363;-73
2022/09/27 13:00:40;;;;;;;1.30;0.93;;;18.10;90.90;;;;;;5095930;28;20470;-74
2022/09/27 13:03:25;;;;;;;1.27;0.68;;;18.10;90.90;;;;;;5092662;28;20405;-73
2022/09/27 13:06:21;;;;;;;1.88;0.82;;;18.20;91.00;;;;;;5095797;28;20561;-73
2022/09/27 13:08:58;;;;;;;1.35;0.70;;;18.20;90.70;;;;;;5095697;28;20077;-73
2022/09/27 13:11:28;;;;;;;1.48;0.70;;;18.20;90.50;;;;;;5095269;28;20020;-73
2022/09/27 13:13:57;;;;;;;2.80;0.70;;;18.20;90.50;;;;;;5095825;28;20102;-73
2022/09/27 13:16:24;;;;;;;1.25;0.80;;;18.20;90.40;;;;;;5095966;28;20082;-73
2022/09/27 13:18:54;;;;;;;1.13;0.70;;;18.20;90.20;;;;;;5095843;28;20783;-73
2022/09/27 13:21:49;;;;;;;2.83;0.98;;;18.20;89.00;;;;;;5095445;28;20032;-73
2022/09/27 13:24:43;;;;;;;1.75;0.80;;;18.10;88.90;;;;;;5093573;28;20044;-72
2022/09/27 13:27:26;;;;;;;1.27;0.80;;;18.10;89.40;;;;;;5095447;28;20024;-73
2022/09/27 13:30:15;;;;;;;1.75;0.80;;;18.10;89.70;;;;;;5095292;28;20028;-73
2022/09/27 13:33:09;;;;;;;2.55;0.82;;;18.10;89.40;;;;;;5095342;28;20123;-73
2022/09/27 13:35:36;;;;;;;2.90;1.00;;;18.10;89.20;;;;;;5094961;28;20024;-72
2022/09/27 13:38:04;;;;;;;2.00;1.23;;;18.20;87.90;;;;;;5094732;28;20480;-74